Main page
METAR-TAF:

METAR-TAF

Airports :

Rarotonga, Cook Islands

Rarotonga International Airport

latitude: 21-12S, longitude: 159-49W, elevation: 7 m

Current weather observation

The report was made 34 minutes ago, at 10:00 UTC
Wind 11 kt from the East
Temperature 25°C
Humidity 69%
Pressure 1021 hPa
Visibility 10 km or more
Scattered clouds at a height of 1800 ft

METAR: NCRG 281000Z 10011KT 9999 SCT018 25/19 Q1021

Time: 00:34 (10:34 UTC)

Forecast

The report was made 5 hours and 28 minutes ago, at 05:06 UTC
Forecast valid from 28 at 06 UTC to 29 at 06 UTC
Wind 10 kt from the East/Southeast
Visibility 10 km or more
Scattered clouds at a height of 1800 ft

TAF: NCRG 280506Z 2806/2906 11010KT 9999 SCT018

Weather observations and forecasts of more than 4000 airports (METAR and TAF reports).

The available stations are represented by yellow and red dots on the map.

Hover mouse over dot to see the name of the station.

Then click to see weather observations and forecasts.

To change the map : click on the green buttons with a black cross to zoom in, on the green button with a dash to zoom out, or on the green arrows for adjacent maps.


METAR-TAF: